Terminal Aerodrome Forecast
Issued by NWS

Home | Current Version | Previous Version | Text Only | Print | Product List | Glossary On
Versions: 1 2 3 4 5 6 7 8 9 10 11 12 13 14 15 16 17 18 19 20 21 22 23 24 25 26 27 28 29 30
000
FTUS43 KDMX 040543 CCA
TAFOTM
TAF COR
KOTM 040543Z 0406/0506 19008KT P6SM SCT060 BKN100
      TEMPO 0410/0413 -TSRA SCT030 BKN060CB
     FM041300 32008KT P6SM SCT060 BKN150
     FM042100 10007KT P6SM VCSH OVC050
      AMD NOT SKED=

USA.gov is the U.S. government's official web portal to all federal, state and local government web resources and services.